Airport View

Enter AWOS ICAO identifier for current METAR.

ex. KFNL

KGAF 041505Z AUTO 10006KT 10SM CLR 22/18 A3003 RMK AO2 LTG DSNT N PWINO

4 Jul 2020 14:58

Frequency: 118.625

Phone: 701-352-0581

Other Area AWOS: K2C8 - KRDR - KHCO - KGFK

TAF AMD KRDR 031052Z 0310/0408 15012KT 9999 FEW270 QNH2995INS BECMG 0314/0315 VRB06KT 9999 FEW010 QNH3002INS TX31/0321Z TN22/0311Z LAST NO AMDS AFT 0311 NEXT 0712